sensor_id;sensor_type;location;lat;lon;timestamp;temperature;humidity
75457;SHT31;64036;48.266;14.192;2023-02-01T00:00:46;4.12;79.08
75457;SHT31;64036;48.266;14.192;2023-02-01T00:03:12;4.11;79.11
75457;SHT31;64036;48.266;14.192;2023-02-01T00:05:43;4.10;79.16
75457;SHT31;64036;48.266;14.192;2023-02-01T00:08:15;4.09;79.15
75457;SHT31;64036;48.266;14.192;2023-02-01T00:10:56;4.12;79.20
75457;SHT31;64036;48.266;14.192;2023-02-01T00:13:28;4.12;79.17
75457;SHT31;64036;48.266;14.192;2023-02-01T00:16:09;4.15;78.99
75457;SHT31;64036;48.266;14.192;2023-02-01T00:18:59;4.18;78.98
75457;SHT31;64036;48.266;14.192;2023-02-01T00:21:28;4.20;79.00
75457;SHT31;64036;48.266;14.192;2023-02-01T00:23:55;4.22;79.06
75457;SHT31;64036;48.266;14.192;2023-02-01T00:26:36;4.22;79.10
75457;SHT31;64036;48.266;14.192;2023-02-01T00:29:07;4.24;79.15
75457;SHT31;64036;48.266;14.192;2023-02-01T00:31:46;4.25;79.19
75457;SHT31;64036;48.266;14.192;2023-02-01T00:34:25;4.25;79.22
75457;SHT31;64036;48.266;14.192;2023-02-01T00:36:51;4.27;79.26
75457;SHT31;64036;48.266;14.192;2023-02-01T00:39:20;4.27;79.21
75457;SHT31;64036;48.266;14.192;2023-02-01T00:41:46;4.28;79.25
75457;SHT31;64036;48.266;14.192;2023-02-01T00:44:30;4.30;79.26
75457;SHT31;64036;48.266;14.192;2023-02-01T00:46:59;4.31;79.23
75457;SHT31;64036;48.266;14.192;2023-02-01T00:49:31;4.34;79.20
75457;SHT31;64036;48.266;14.192;2023-02-01T00:51:57;4.36;79.24
75457;SHT31;64036;48.266;14.192;2023-02-01T00:54:37;4.37;79.26
75457;SHT31;64036;48.266;14.192;2023-02-01T00:57:03;4.39;79.29
75457;SHT31;64036;48.266;14.192;2023-02-01T00:59:36;4.41;79.24
75457;SHT31;64036;48.266;14.192;2023-02-01T01:02:02;4.43;79.26
75457;SHT31;64036;48.266;14.192;2023-02-01T01:04:33;4.44;79.20
75457;SHT31;64036;48.266;14.192;2023-02-01T01:06:59;4.46;79.14
75457;SHT31;64036;48.266;14.192;2023-02-01T01:09:33;4.45;79.13
75457;SHT31;64036;48.266;14.192;2023-02-01T01:12:08;4.47;79.10
75457;SHT31;64036;48.266;14.192;2023-02-01T01:14:37;4.47;79.11
75457;SHT31;64036;48.266;14.192;2023-02-01T01:17:06;4.49;79.14
75457;SHT31;64036;48.266;14.192;2023-02-01T01:19:50;4.51;79.12
75457;SHT31;64036;48.266;14.192;2023-02-01T01:22:31;4.51;79.11
75457;SHT31;64036;48.266;14.192;2023-02-01T01:24:57;4.51;79.06
75457;SHT31;64036;48.266;14.192;2023-02-01T01:27:22;4.53;79.08
75457;SHT31;64036;48.266;14.192;2023-02-01T01:29:50;4.55;79.01
75457;SHT31;64036;48.266;14.192;2023-02-01T01:32:24;4.56;78.95
75457;SHT31;64036;48.266;14.192;2023-02-01T01:34:50;4.58;78.85
75457;SHT31;64036;48.266;14.192;2023-02-01T01:37:16;4.60;78.62
75457;SHT31;64036;48.266;14.192;2023-02-01T01:39:42;4.62;78.62
75457;SHT31;64036;48.266;14.192;2023-02-01T01:42:12;4.63;78.47
75457;SHT31;64036;48.266;14.192;2023-02-01T01:47:43;4.69;78.12
75457;SHT31;64036;48.266;14.192;2023-02-01T01:51:06;4.73;78.04
75457;SHT31;64036;48.266;14.192;2023-02-01T01:53:42;4.75;78.04
75457;SHT31;64036;48.266;14.192;2023-02-01T01:56:13;4.75;78.01
75457;SHT31;64036;48.266;14.192;2023-02-01T01:58:40;4.76;78.02
75457;SHT31;64036;48.266;14.192;2023-02-01T02:01:19;4.77;77.96
75457;SHT31;64036;48.266;14.192;2023-02-01T02:03:50;4.77;78.00
75457;SHT31;64036;48.266;14.192;2023-02-01T02:09:25;4.80;77.91
75457;SHT31;64036;48.266;14.192;2023-02-01T02:11:51;4.80;77.96
75457;SHT31;64036;48.266;14.192;2023-02-01T02:14:17;4.83;78.12
75457;SHT31;64036;48.266;14.192;2023-02-01T02:40:49;4.84;78.30
75457;SHT31;64036;48.266;14.192;2023-02-01T02:44:08;4.84;78.32
75457;SHT31;64036;48.266;14.192;2023-02-01T02:47:06;4.84;78.35
75457;SHT31;64036;48.266;14.192;2023-02-01T02:56:43;4.89;78.30
75457;SHT31;64036;48.266;14.192;2023-02-01T02:59:33;4.91;78.28
75457;SHT31;64036;48.266;14.192;2023-02-01T03:02:19;4.94;78.14
75457;SHT31;64036;48.266;14.192;2023-02-01T03:05:08;4.95;78.01
75457;SHT31;64036;48.266;14.192;2023-02-01T03:12:53;4.99;77.99
75457;SHT31;64036;48.266;14.192;2023-02-01T03:15:53;4.98;78.00
75457;SHT31;64036;48.266;14.192;2023-02-01T03:19:06;4.98;77.94
75457;SHT31;64036;48.266;14.192;2023-02-01T03:21:37;4.96;77.90
75457;SHT31;64036;48.266;14.192;2023-02-01T03:24:50;4.96;77.89
75457;SHT31;64036;48.266;14.192;2023-02-01T03:27:51;4.96;77.91
75457;SHT31;64036;48.266;14.192;2023-02-01T03:30:31;4.97;77.94
75457;SHT31;64036;48.266;14.192;2023-02-01T03:33:10;4.99;77.99
75457;SHT31;64036;48.266;14.192;2023-02-01T03:38:43;4.99;77.92
75457;SHT31;64036;48.266;14.192;2023-02-01T03:41:53;4.99;77.98
75457;SHT31;64036;48.266;14.192;2023-02-01T03:47:39;5.01;77.98
75457;SHT31;64036;48.266;14.192;2023-02-01T03:50:17;5.03;77.97
75457;SHT31;64036;48.266;14.192;2023-02-01T03:52:56;5.05;77.97
75457;SHT31;64036;48.266;14.192;2023-02-01T03:55:27;5.07;77.87
75457;SHT31;64036;48.266;14.192;2023-02-01T03:57:57;5.04;77.72
75457;SHT31;64036;48.266;14.192;2023-02-01T04:00:35;5.02;77.59
75457;SHT31;64036;48.266;14.192;2023-02-01T04:03:22;5.03;77.53
75457;SHT31;64036;48.266;14.192;2023-02-01T04:05:51;5.01;77.51
75457;SHT31;64036;48.266;14.192;2023-02-01T04:08:21;5.02;77.53
75457;SHT31;64036;48.266;14.192;2023-02-01T04:10:50;5.03;77.51
75457;SHT31;64036;48.266;14.192;2023-02-01T04:13:16;5.06;77.45
75457;SHT31;64036;48.266;14.192;2023-02-01T04:15:42;5.09;77.39
75457;SHT31;64036;48.266;14.192;2023-02-01T04:18:20;5.11;77.25
75457;SHT31;64036;48.266;14.192;2023-02-01T04:20:51;5.13;77.21
75457;SHT31;64036;48.266;14.192;2023-02-01T04:23:17;5.14;77.12
75457;SHT31;64036;48.266;14.192;2023-02-01T04:25:51;5.15;77.05
75457;SHT31;64036;48.266;14.192;2023-02-01T04:28:20;5.16;77.03
75457;SHT31;64036;48.266;14.192;2023-02-01T04:30:48;5.15;76.88
75457;SHT31;64036;48.266;14.192;2023-02-01T04:33:17;5.15;76.89
75457;SHT31;64036;48.266;14.192;2023-02-01T04:35:43;5.15;76.82
75457;SHT31;64036;48.266;14.192;2023-02-01T04:38:18;5.18;76.77
75457;SHT31;64036;48.266;14.192;2023-02-01T04:40:46;5.20;76.58
75457;SHT31;64036;48.266;14.192;2023-02-01T04:43:15;5.20;76.64
75457;SHT31;64036;48.266;14.192;2023-02-01T04:45:47;5.18;76.54
75457;SHT31;64036;48.266;14.192;2023-02-01T04:48:14;5.15;76.57
75457;SHT31;64036;48.266;14.192;2023-02-01T04:50:42;5.14;76.52
75457;SHT31;64036;48.266;14.192;2023-02-01T04:53:16;5.14;76.67
75457;SHT31;64036;48.266;14.192;2023-02-01T04:55:47;5.14;76.66
75457;SHT31;64036;48.266;14.192;2023-02-01T04:58:16;5.13;76.60
75457;SHT31;64036;48.266;14.192;2023-02-01T05:00:47;5.13;76.56
75457;SHT31;64036;48.266;14.192;2023-02-01T05:03:16;5.14;76.47
75457;SHT31;64036;48.266;14.192;2023-02-01T05:05:43;5.13;76.33
75457;SHT31;64036;48.266;14.192;2023-02-01T05:08:18;5.13;76.44
75457;SHT31;64036;48.266;14.192;2023-02-01T05:10:44;5.12;76.39
75457;SHT31;64036;48.266;14.192;2023-02-01T05:13:13;5.13;76.44
75457;SHT31;64036;48.266;14.192;2023-02-01T05:16:15;5.14;76.52
75457;SHT31;64036;48.266;14.192;2023-02-01T05:18:50;5.15;76.60
75457;SHT31;64036;48.266;14.192;2023-02-01T05:21:16;5.17;76.63
75457;SHT31;64036;48.266;14.192;2023-02-01T05:23:48;5.19;76.58
75457;SHT31;64036;48.266;14.192;2023-02-01T05:26:41;5.21;76.60
75457;SHT31;64036;48.266;14.192;2023-02-01T05:29:13;5.20;76.52
75457;SHT31;64036;48.266;14.192;2023-02-01T05:31:40;5.22;76.41
75457;SHT31;64036;48.266;14.192;2023-02-01T05:34:10;5.24;76.44
75457;SHT31;64036;48.266;14.192;2023-02-01T05:36:38;5.24;76.47
75457;SHT31;64036;48.266;14.192;2023-02-01T05:39:20;5.24;76.48
75457;SHT31;64036;48.266;14.192;2023-02-01T05:41:49;5.24;76.41
75457;SHT31;64036;48.266;14.192;2023-02-01T05:44:15;5.24;76.48
75457;SHT31;64036;48.266;14.192;2023-02-01T05:46:48;5.26;76.40
75457;SHT31;64036;48.266;14.192;2023-02-01T05:49:17;5.29;76.28
75457;SHT31;64036;48.266;14.192;2023-02-01T05:51:48;5.30;76.15
75457;SHT31;64036;48.266;14.192;2023-02-01T05:54:23;5.30;76.05
75457;SHT31;64036;48.266;14.192;2023-02-01T05:56:57;5.30;75.91
75457;SHT31;64036;48.266;14.192;2023-02-01T05:59:26;5.32;75.99
75457;SHT31;64036;48.266;14.192;2023-02-01T06:01:57;5.31;76.00
75457;SHT31;64036;48.266;14.192;2023-02-01T06:04:23;5.31;76.06
75457;SHT31;64036;48.266;14.192;2023-02-01T06:06:55;5.30;75.94
75457;SHT31;64036;48.266;14.192;2023-02-01T06:09:42;5.31;75.83
75457;SHT31;64036;48.266;14.192;2023-02-01T06:12:10;5.33;75.58
75457;SHT31;64036;48.266;14.192;2023-02-01T06:14:51;5.33;75.58
75457;SHT31;64036;48.266;14.192;2023-02-01T06:17:17;5.35;75.43
75457;SHT31;64036;48.266;14.192;2023-02-01T06:20:04;5.35;75.55
75457;SHT31;64036;48.266;14.192;2023-02-01T06:22:33;5.36;75.10
75457;SHT31;64036;48.266;14.192;2023-02-01T06:25:01;5.39;75.14
75457;SHT31;64036;48.266;14.192;2023-02-01T06:27:32;5.40;75.27
75457;SHT31;64036;48.266;14.192;2023-02-01T06:29:58;5.40;75.12
75457;SHT31;64036;48.266;14.192;2023-02-01T06:32:24;5.41;74.94
75457;SHT31;64036;48.266;14.192;2023-02-01T06:34:50;5.43;74.80
75457;SHT31;64036;48.266;14.192;2023-02-01T06:37:21;5.46;74.80
75457;SHT31;64036;48.266;14.192;2023-02-01T06:39:49;5.47;74.66
75457;SHT31;64036;48.266;14.192;2023-02-01T06:42:16;5.50;74.72
75457;SHT31;64036;48.266;14.192;2023-02-01T06:44:42;5.51;74.77
75457;SHT31;64036;48.266;14.192;2023-02-01T06:47:13;5.49;74.61
75457;SHT31;64036;48.266;14.192;2023-02-01T06:49:58;5.51;74.63
75457;SHT31;64036;48.266;14.192;2023-02-01T06:52:31;5.51;74.78
75457;SHT31;64036;48.266;14.192;2023-02-01T06:54:57;5.50;74.84
75457;SHT31;64036;48.266;14.192;2023-02-01T06:57:27;5.48;75.16
75457;SHT31;64036;48.266;14.192;2023-02-01T06:59:55;5.49;75.13
75457;SHT31;64036;48.266;14.192;2023-02-01T07:02:21;5.48;75.21
75457;SHT31;64036;48.266;14.192;2023-02-01T07:04:47;5.47;75.26
75457;SHT31;64036;48.266;14.192;2023-02-01T07:07:13;5.45;75.30
75457;SHT31;64036;48.266;14.192;2023-02-01T07:09:40;5.44;75.24
75457;SHT31;64036;48.266;14.192;2023-02-01T07:12:14;5.44;75.29
75457;SHT31;64036;48.266;14.192;2023-02-01T07:14:40;5.45;75.25
75457;SHT31;64036;48.266;14.192;2023-02-01T07:17:06;5.47;75.20
75457;SHT31;64036;48.266;14.192;2023-02-01T07:19:32;5.48;75.25
75457;SHT31;64036;48.266;14.192;2023-02-01T07:22:03;5.47;74.97
75457;SHT31;64036;48.266;14.192;2023-02-01T07:24:45;5.49;75.17
75457;SHT31;64036;48.266;14.192;2023-02-01T07:27:13;5.49;75.11
75457;SHT31;64036;48.266;14.192;2023-02-01T07:29:44;5.49;74.93
75457;SHT31;64036;48.266;14.192;2023-02-01T07:32:20;5.50;74.83
75457;SHT31;64036;48.266;14.192;2023-02-01T07:34:51;5.52;74.80
75457;SHT31;64036;48.266;14.192;2023-02-01T07:37:27;5.55;74.98
75457;SHT31;64036;48.266;14.192;2023-02-01T07:39:55;5.57;74.76
75457;SHT31;64036;48.266;14.192;2023-02-01T07:42:24;5.56;74.63
75457;SHT31;64036;48.266;14.192;2023-02-01T07:44:53;5.58;74.57
75457;SHT31;64036;48.266;14.192;2023-02-01T07:47:27;5.58;74.58
75457;SHT31;64036;48.266;14.192;2023-02-01T07:50:02;5.59;74.59
75457;SHT31;64036;48.266;14.192;2023-02-01T07:53:00;5.60;74.24
75457;SHT31;64036;48.266;14.192;2023-02-01T07:55:58;5.55;74.44
75457;SHT31;64036;48.266;14.192;2023-02-01T07:58:48;5.52;74.52
75457;SHT31;64036;48.266;14.192;2023-02-01T08:01:23;5.52;74.49
75457;SHT31;64036;48.266;14.192;2023-02-01T08:03:52;5.56;74.36
75457;SHT31;64036;48.266;14.192;2023-02-01T08:06:40;5.58;74.21
75457;SHT31;64036;48.266;14.192;2023-02-01T08:09:26;5.59;74.15
75457;SHT31;64036;48.266;14.192;2023-02-01T08:12:21;5.62;74.29
75457;SHT31;64036;48.266;14.192;2023-02-01T08:15:06;5.63;74.24
75457;SHT31;64036;48.266;14.192;2023-02-01T08:17:39;5.65;74.27
75457;SHT31;64036;48.266;14.192;2023-02-01T08:20:17;5.67;74.14
75457;SHT31;64036;48.266;14.192;2023-02-01T08:22:58;5.68;74.34
75457;SHT31;64036;48.266;14.192;2023-02-01T08:25:32;5.70;74.46
75457;SHT31;64036;48.266;14.192;2023-02-01T08:27:59;5.70;74.31
75457;SHT31;64036;48.266;14.192;2023-02-01T08:30:35;5.70;74.47
75457;SHT31;64036;48.266;14.192;2023-02-01T08:33:19;5.72;74.32
75457;SHT31;64036;48.266;14.192;2023-02-01T08:36:01;5.73;74.19
75457;SHT31;64036;48.266;14.192;2023-02-01T08:38:41;5.73;74.13
75457;SHT31;64036;48.266;14.192;2023-02-01T08:41:11;5.74;73.89
75457;SHT31;64036;48.266;14.192;2023-02-01T08:46:39;5.76;73.50
75457;SHT31;64036;48.266;14.192;2023-02-01T08:50:04;5.74;73.71
75457;SHT31;64036;48.266;14.192;2023-02-01T08:52:36;5.74;73.83
75457;SHT31;64036;48.266;14.192;2023-02-01T08:55:11;5.72;73.44
75457;SHT31;64036;48.266;14.192;2023-02-01T08:57:38;5.74;73.51
75457;SHT31;64036;48.266;14.192;2023-02-01T09:00:05;5.76;73.77
75457;SHT31;64036;48.266;14.192;2023-02-01T09:02:36;5.76;73.68
75457;SHT31;64036;48.266;14.192;2023-02-01T09:05:02;5.76;73.66
75457;SHT31;64036;48.266;14.192;2023-02-01T09:07:29;5.74;73.49
75457;SHT31;64036;48.266;14.192;2023-02-01T09:09:55;5.74;73.79
75457;SHT31;64036;48.266;14.192;2023-02-01T09:12:21;5.76;73.88
75457;SHT31;64036;48.266;14.192;2023-02-01T09:15:24;5.74;74.26
75457;SHT31;64036;48.266;14.192;2023-02-01T09:17:49;5.74;74.49
75457;SHT31;64036;48.266;14.192;2023-02-01T09:20:18;5.69;74.73
75457;SHT31;64036;48.266;14.192;2023-02-01T09:22:51;5.67;75.01
75457;SHT31;64036;48.266;14.192;2023-02-01T09:28:40;5.67;74.99
75457;SHT31;64036;48.266;14.192;2023-02-01T09:34:02;5.80;74.78
75457;SHT31;64036;48.266;14.192;2023-02-01T09:37:11;5.90;74.89
75457;SHT31;64036;48.266;14.192;2023-02-01T09:40:16;6.01;74.79
75457;SHT31;64036;48.266;14.192;2023-02-01T09:43:07;6.09;74.23
75457;SHT31;64036;48.266;14.192;2023-02-01T09:49:20;6.24;73.13
75457;SHT31;64036;48.266;14.192;2023-02-01T09:52:07;6.23;73.07
75457;SHT31;64036;48.266;14.192;2023-02-01T09:55:39;6.25;73.07
75457;SHT31;64036;48.266;14.192;2023-02-01T10:01:56;6.30;73.13
75457;SHT31;64036;48.266;14.192;2023-02-01T10:04:51;6.32;73.12
75457;SHT31;64036;48.266;14.192;2023-02-01T10:10:33;6.25;73.79
75457;SHT31;64036;48.266;14.192;2023-02-01T10:13:13;6.33;73.98
75457;SHT31;64036;48.266;14.192;2023-02-01T10:19:51;6.49;73.86
75457;SHT31;64036;48.266;14.192;2023-02-01T10:27:44;6.69;73.33
75457;SHT31;64036;48.266;14.192;2023-02-01T10:30:32;6.64;73.49
75457;SHT31;64036;48.266;14.192;2023-02-01T10:33:27;6.49;74.17
75457;SHT31;64036;48.266;14.192;2023-02-01T10:36:30;6.35;74.63
75457;SHT31;64036;48.266;14.192;2023-02-01T10:39:23;6.17;74.99
75457;SHT31;64036;48.266;14.192;2023-02-01T10:41:49;6.06;75.68
75457;SHT31;64036;48.266;14.192;2023-02-01T10:44:16;5.96;76.37
75457;SHT31;64036;48.266;14.192;2023-02-01T10:46:47;5.86;76.62
75457;SHT31;64036;48.266;14.192;2023-02-01T10:49:18;5.74;76.74
75457;SHT31;64036;48.266;14.192;2023-02-01T10:52:14;5.60;76.88
75457;SHT31;64036;48.266;14.192;2023-02-01T10:58:01;5.42;77.92
75457;SHT31;64036;48.266;14.192;2023-02-01T11:00:48;5.32;78.30
75457;SHT31;64036;48.266;14.192;2023-02-01T11:07:27;5.08;79.23
75457;SHT31;64036;48.266;14.192;2023-02-01T11:10:09;5.03;79.11
75457;SHT31;64036;48.266;14.192;2023-02-01T11:13:21;4.96;79.26
75457;SHT31;64036;48.266;14.192;2023-02-01T11:16:36;4.91;79.23
75457;SHT31;64036;48.266;14.192;2023-02-01T11:22:08;4.72;79.56
75457;SHT31;64036;48.266;14.192;2023-02-01T11:25:07;4.65;79.84
75457;SHT31;64036;48.266;14.192;2023-02-01T11:28:40;4.67;79.93
75457;SHT31;64036;48.266;14.192;2023-02-01T11:31:25;4.69;80.09
75457;SHT31;64036;48.266;14.192;2023-02-01T11:34:18;4.75;79.90
75457;SHT31;64036;48.266;14.192;2023-02-01T11:39:43;5.40;79.80
75457;SHT31;64036;48.266;14.192;2023-02-01T11:42:57;5.65;79.20
75457;SHT31;64036;48.266;14.192;2023-02-01T11:46:03;6.09;79.14
75457;SHT31;64036;48.266;14.192;2023-02-01T11:49:13;6.63;78.55
75457;SHT31;64036;48.266;14.192;2023-02-01T11:55:35;6.55;76.98
75457;SHT31;64036;48.266;14.192;2023-02-01T12:02:02;6.29;77.18
75457;SHT31;64036;48.266;14.192;2023-02-01T12:05:43;6.24;77.22
75457;SHT31;64036;48.266;14.192;2023-02-01T12:08:23;6.23;77.28
75457;SHT31;64036;48.266;14.192;2023-02-01T12:14:22;6.16;77.25
75457;SHT31;64036;48.266;14.192;2023-02-01T12:20:22;6.17;77.33
75457;SHT31;64036;48.266;14.192;2023-02-01T12:34:17;6.20;77.14
75457;SHT31;64036;48.266;14.192;2023-02-01T12:40:45;6.29;74.18
75457;SHT31;64036;48.266;14.192;2023-02-01T12:43:36;6.45;73.14
75457;SHT31;64036;48.266;14.192;2023-02-01T12:46:13;6.63;72.57
75457;SHT31;64036;48.266;14.192;2023-02-01T12:51:26;7.18;70.62
75457;SHT31;64036;48.266;14.192;2023-02-01T12:53:59;7.47;70.67
75457;SHT31;64036;48.266;14.192;2023-02-01T12:57:12;7.68;69.70
75457;SHT31;64036;48.266;14.192;2023-02-01T13:00:07;7.73;68.44
75457;SHT31;64036;48.266;14.192;2023-02-01T13:16:25;7.31;67.41
75457;SHT31;64036;48.266;14.192;2023-02-01T13:19:34;7.22;68.24
75457;SHT31;64036;48.266;14.192;2023-02-01T13:22:27;7.16;69.45
75457;SHT31;64036;48.266;14.192;2023-02-01T13:42:30;6.08;74.26
75457;SHT31;64036;48.266;14.192;2023-02-01T13:45:15;6.10;74.12
75457;SHT31;64036;48.266;14.192;2023-02-01T13:47:54;6.13;74.25
75457;SHT31;64036;48.266;14.192;2023-02-01T13:50:40;6.17;74.39
75457;SHT31;64036;48.266;14.192;2023-02-01T13:55:46;6.18;74.76
75457;SHT31;64036;48.266;14.192;2023-02-01T13:58:40;6.27;74.80
75457;SHT31;64036;48.266;14.192;2023-02-01T14:01:35;6.37;74.62
75457;SHT31;64036;48.266;14.192;2023-02-01T14:04:03;6.40;74.05
75457;SHT31;64036;48.266;14.192;2023-02-01T14:07:21;6.43;73.97
75457;SHT31;64036;48.266;14.192;2023-02-01T14:09:56;6.45;73.71
75457;SHT31;64036;48.266;14.192;2023-02-01T14:15:40;6.47;73.50
75457;SHT31;64036;48.266;14.192;2023-02-01T14:21:34;6.36;73.44
75457;SHT31;64036;48.266;14.192;2023-02-01T14:24:35;6.30;73.52
75457;SHT31;64036;48.266;14.192;2023-02-01T14:27:24;6.26;73.72
75457;SHT31;64036;48.266;14.192;2023-02-01T14:30:14;6.17;74.03
75457;SHT31;64036;48.266;14.192;2023-02-01T14:32:51;6.14;74.23
75457;SHT31;64036;48.266;14.192;2023-02-01T14:35:19;6.11;74.28
75457;SHT31;64036;48.266;14.192;2023-02-01T14:37:52;6.09;74.33
75457;SHT31;64036;48.266;14.192;2023-02-01T14:40:32;6.06;74.31
75457;SHT31;64036;48.266;14.192;2023-02-01T14:43:09;6.07;74.38
75457;SHT31;64036;48.266;14.192;2023-02-01T14:58:59;6.04;74.66
75457;SHT31;64036;48.266;14.192;2023-02-01T15:01:35;6.04;74.49
75457;SHT31;64036;48.266;14.192;2023-02-01T15:04:05;6.04;74.24
75457;SHT31;64036;48.266;14.192;2023-02-01T15:09:49;6.07;73.73
75457;SHT31;64036;48.266;14.192;2023-02-01T15:12:30;6.09;73.01
75457;SHT31;64036;48.266;14.192;2023-02-01T15:15:27;6.15;71.50
75457;SHT31;64036;48.266;14.192;2023-02-01T15:18:01;6.20;71.45
75457;SHT31;64036;48.266;14.192;2023-02-01T15:26:52;6.27;69.77
75457;SHT31;64036;48.266;14.192;2023-02-01T15:29:31;6.29;69.27
75457;SHT31;64036;48.266;14.192;2023-02-01T15:31:59;6.32;69.23
75457;SHT31;64036;48.266;14.192;2023-02-01T15:34:52;6.31;68.88
75457;SHT31;64036;48.266;14.192;2023-02-01T15:37:28;6.34;68.19
75457;SHT31;64036;48.266;14.192;2023-02-01T15:42:58;6.33;68.21
75457;SHT31;64036;48.266;14.192;2023-02-01T15:45:37;6.33;67.80
75457;SHT31;64036;48.266;14.192;2023-02-01T15:48:14;6.34;67.59
75457;SHT31;64036;48.266;14.192;2023-02-01T15:50:58;6.32;67.62
75457;SHT31;64036;48.266;14.192;2023-02-01T15:53:34;6.26;68.28
75457;SHT31;64036;48.266;14.192;2023-02-01T15:56:03;6.19;68.93
75457;SHT31;64036;48.266;14.192;2023-02-01T15:58:35;6.14;69.46
75457;SHT31;64036;48.266;14.192;2023-02-01T16:01:21;6.09;69.85
75457;SHT31;64036;48.266;14.192;2023-02-01T16:03:47;6.05;70.16
75457;SHT31;64036;48.266;14.192;2023-02-01T16:07:00;6.02;70.32
75457;SHT31;64036;48.266;14.192;2023-02-01T16:10:02;5.99;70.46
75457;SHT31;64036;48.266;14.192;2023-02-01T16:13:14;5.94;70.98
75457;SHT31;64036;48.266;14.192;2023-02-01T16:15:49;5.93;71.45
75457;SHT31;64036;48.266;14.192;2023-02-01T16:18:20;5.88;71.86
75457;SHT31;64036;48.266;14.192;2023-02-01T16:20:48;5.81;72.08
75457;SHT31;64036;48.266;14.192;2023-02-01T16:23:17;5.75;72.13
75457;SHT31;64036;48.266;14.192;2023-02-01T16:25:56;5.71;72.24
75457;SHT31;64036;48.266;14.192;2023-02-01T16:28:42;5.66;72.11
75457;SHT31;64036;48.266;14.192;2023-02-01T16:34:14;5.63;71.75
75457;SHT31;64036;48.266;14.192;2023-02-01T16:36:55;5.64;71.33
75457;SHT31;64036;48.266;14.192;2023-02-01T16:39:33;5.65;70.91
75457;SHT31;64036;48.266;14.192;2023-02-01T16:42:16;5.69;70.36
75457;SHT31;64036;48.266;14.192;2023-02-01T16:45:00;5.74;70.12
75457;SHT31;64036;48.266;14.192;2023-02-01T16:47:42;5.78;69.41
75457;SHT31;64036;48.266;14.192;2023-02-01T16:50:23;5.82;68.95
75457;SHT31;64036;48.266;14.192;2023-02-01T16:53:03;5.86;68.60
75457;SHT31;64036;48.266;14.192;2023-02-01T16:55:41;5.90;68.60
75457;SHT31;64036;48.266;14.192;2023-02-01T16:58:12;5.91;68.29
75457;SHT31;64036;48.266;14.192;2023-02-01T17:01:07;5.93;68.31
75457;SHT31;64036;48.266;14.192;2023-02-01T17:03:38;5.95;67.99
75457;SHT31;64036;48.266;14.192;2023-02-01T17:06:09;5.99;67.95
75457;SHT31;64036;48.266;14.192;2023-02-01T17:14:20;6.08;67.39
75457;SHT31;64036;48.266;14.192;2023-02-01T17:16:49;6.07;67.89
75457;SHT31;64036;48.266;14.192;2023-02-01T17:19:29;6.07;67.76
75457;SHT31;64036;48.266;14.192;2023-02-01T17:22:16;6.07;67.47
75457;SHT31;64036;48.266;14.192;2023-02-01T17:24:41;6.09;67.07
75457;SHT31;64036;48.266;14.192;2023-02-01T17:27:18;6.11;67.43
75457;SHT31;64036;48.266;14.192;2023-02-01T17:29:44;6.11;67.18
75457;SHT31;64036;48.266;14.192;2023-02-01T17:35:21;6.10;67.15
75457;SHT31;64036;48.266;14.192;2023-02-01T17:38:09;6.12;67.33
75457;SHT31;64036;48.266;14.192;2023-02-01T17:40:39;6.11;67.12
75457;SHT31;64036;48.266;14.192;2023-02-01T17:43:18;6.09;67.27
75457;SHT31;64036;48.266;14.192;2023-02-01T17:46:03;6.09;67.30
75457;SHT31;64036;48.266;14.192;2023-02-01T17:49:17;6.08;67.31
75457;SHT31;64036;48.266;14.192;2023-02-01T17:51:46;6.10;67.12
75457;SHT31;64036;48.266;14.192;2023-02-01T17:54:14;6.09;67.23
75457;SHT31;64036;48.266;14.192;2023-02-01T17:56:44;6.09;66.86
75457;SHT31;64036;48.266;14.192;2023-02-01T17:59:14;6.10;66.99
75457;SHT31;64036;48.266;14.192;2023-02-01T18:01:45;6.08;67.15
75457;SHT31;64036;48.266;14.192;2023-02-01T18:04:12;6.07;66.85
75457;SHT31;64036;48.266;14.192;2023-02-01T18:06:41;6.07;66.84
75457;SHT31;64036;48.266;14.192;2023-02-01T18:09:18;6.06;66.89
75457;SHT31;64036;48.266;14.192;2023-02-01T18:11:55;6.06;66.92
75457;SHT31;64036;48.266;14.192;2023-02-01T18:14:32;6.05;67.12
75457;SHT31;64036;48.266;14.192;2023-02-01T18:17:18;6.04;66.77
75457;SHT31;64036;48.266;14.192;2023-02-01T18:19:44;6.04;66.42
75457;SHT31;64036;48.266;14.192;2023-02-01T18:22:36;6.06;66.43
75457;SHT31;64036;48.266;14.192;2023-02-01T18:25:24;6.05;66.39
75457;SHT31;64036;48.266;14.192;2023-02-01T18:28:20;6.04;66.25
75457;SHT31;64036;48.266;14.192;2023-02-01T18:31:06;6.06;65.71
75457;SHT31;64036;48.266;14.192;2023-02-01T18:33:34;6.09;65.84
75457;SHT31;64036;48.266;14.192;2023-02-01T18:50:15;5.94;67.45
75457;SHT31;64036;48.266;14.192;2023-02-01T18:56:33;5.87;67.35
75457;SHT31;64036;48.266;14.192;2023-02-01T18:59:45;5.86;67.41
75457;SHT31;64036;48.266;14.192;2023-02-01T19:02:23;5.87;67.41
75457;SHT31;64036;48.266;14.192;2023-02-01T19:04:55;5.88;67.10
75457;SHT31;64036;48.266;14.192;2023-02-01T19:07:30;5.91;66.52
75457;SHT31;64036;48.266;14.192;2023-02-01T19:10:07;5.96;66.26
75457;SHT31;64036;48.266;14.192;2023-02-01T19:12:48;6.00;66.40
75457;SHT31;64036;48.266;14.192;2023-02-01T19:15:38;6.01;66.51
75457;SHT31;64036;48.266;14.192;2023-02-01T19:18:29;6.03;66.07
75457;SHT31;64036;48.266;14.192;2023-02-01T19:21:08;6.07;66.04
75457;SHT31;64036;48.266;14.192;2023-02-01T19:23:54;6.07;66.41
75457;SHT31;64036;48.266;14.192;2023-02-01T19:26:36;6.08;66.17
75457;SHT31;64036;48.266;14.192;2023-02-01T19:29:16;6.08;66.34
75457;SHT31;64036;48.266;14.192;2023-02-01T19:31:42;6.08;66.39
75457;SHT31;64036;48.266;14.192;2023-02-01T19:34:11;6.08;66.45
75457;SHT31;64036;48.266;14.192;2023-02-01T19:36:37;6.09;65.95
75457;SHT31;64036;48.266;14.192;2023-02-01T19:39:13;6.11;65.77
75457;SHT31;64036;48.266;14.192;2023-02-01T19:41:39;6.13;65.85
75457;SHT31;64036;48.266;14.192;2023-02-01T19:44:05;6.15;65.77
75457;SHT31;64036;48.266;14.192;2023-02-01T19:46:31;6.16;65.50
75457;SHT31;64036;48.266;14.192;2023-02-01T19:48:57;6.18;65.59
75457;SHT31;64036;48.266;14.192;2023-02-01T19:51:26;6.19;65.66
75457;SHT31;64036;48.266;14.192;2023-02-01T19:54:01;6.19;66.13
75457;SHT31;64036;48.266;14.192;2023-02-01T19:56:49;6.16;66.77
75457;SHT31;64036;48.266;14.192;2023-02-01T19:59:15;6.12;67.40
75457;SHT31;64036;48.266;14.192;2023-02-01T20:01:43;6.06;67.92
75457;SHT31;64036;48.266;14.192;2023-02-01T20:04:15;6.00;67.94
75457;SHT31;64036;48.266;14.192;2023-02-01T20:06:48;5.97;68.05
75457;SHT31;64036;48.266;14.192;2023-02-01T20:09:21;5.95;68.15
75457;SHT31;64036;48.266;14.192;2023-02-01T20:11:55;5.92;68.18
75457;SHT31;64036;48.266;14.192;2023-02-01T20:14:22;5.91;68.03